Time;durP1;ratioP1;P1;durP2;ratioP2;P2;SDS_P1;SDS_P2;PMS_P1;PMS_P2;Temp;Humidity;BMP_temperature;BMP_pressure;BME280_temperature;BME280_humidity;BME280_pressure;Samples;Min_cycle;Max_cycle;Signal;HPM_P1;HPM_P2
2023/09/02 00:01:27;;;;;;;11.38;8.07;;;;;;;;;;6286063;28;20363;-68
2023/09/02 00:04:31;;;;;;;13.25;7.28;;;;;;;;;;6285411;28;20302;-69
2023/09/02 00:07:35;;;;;;;15.15;7.00;;;;;;;;;;6283848;28;20614;-67
2023/09/02 00:10:39;;;;;;;19.92;8.57;;;;;;;;;;6284033;28;20314;-68
2023/09/02 00:13:43;;;;;;;14.50;9.48;;;;;;;;;;6284975;28;20343;-69
2023/09/02 00:16:48;;;;;;;8.65;7.35;;;;;;;;;;6284120;28;20725;-69
2023/09/02 00:19:52;;;;;;;8.88;7.43;;;;;;;;;;6284975;28;20307;-69
2023/09/02 00:22:56;;;;;;;8.00;7.00;;;;;;;;;;6284922;28;20295;-70
2023/09/02 00:26:00;;;;;;;8.07;7.38;;;;;;;;;;6285302;28;20311;-70
2023/09/02 00:29:04;;;;;;;8.82;7.28;;;;;;;;;;6285241;28;20312;-68
2023/09/02 00:32:09;;;;;;;6.90;6.18;;;;;;;;;;6285351;28;20274;-69
2023/09/02 00:35:13;;;;;;;7.05;6.35;;;;;;;;;;6284455;28;20310;-69
2023/09/02 00:38:17;;;;;;;10.20;6.32;;;;;;;;;;6284203;28;20299;-70
2023/09/02 00:41:26;;;;;;;6.95;6.35;;;;;;;;;;6284072;28;20563;-71
2023/09/02 00:44:31;;;;;;;10.45;6.82;;;;;;;;;;6284621;28;20303;-69
2023/09/02 00:47:36;;;;;;;10.20;7.05;;;;;;;;;;6284746;28;20302;-69
2023/09/02 00:50:40;;;;;;;14.05;8.50;;;;;;;;;;6283075;28;20294;-69
2023/09/02 00:53:44;;;;;;;12.65;8.02;;;;;;;;;;6284219;28;20299;-68
2023/09/02 00:56:49;;;;;;;15.35;7.53;;;;;;;;;;6284394;28;20567;-68
2023/09/02 00:59:52;;;;;;;10.35;6.50;;;;;;;;;;6284020;28;20291;-69
2023/09/02 01:02:58;;;;;;;8.30;6.18;;;;;;;;;;6284249;28;20299;-69
2023/09/02 01:06:03;;;;;;;6.80;6.22;;;;;;;;;;6284359;28;20318;-68
2023/09/02 01:09:08;;;;;;;6.47;6.05;;;;;;;;;;6282243;28;20595;-68
2023/09/02 01:12:13;;;;;;;7.82;6.88;;;;;;;;;;6283157;28;20299;-68
2023/09/02 01:15:16;;;;;;;7.95;6.22;;;;;;;;;;6282316;28;20306;-69
2023/09/02 01:18:22;;;;;;;6.72;6.13;;;;;;;;;;6283587;28;20295;-69
2023/09/02 01:21:53;;;;;;;6.63;6.03;;;;;;;;;;6283630;28;20299;-67
2023/09/02 01:25:08;;;;;;;11.38;6.32;;;;;;;;;;6282079;28;20383;-67
2023/09/02 01:28:16;;;;;;;7.78;6.47;;;;;;;;;;6283040;28;20307;-68
2023/09/02 01:31:22;;;;;;;10.45;6.82;;;;;;;;;;6283708;28;20402;-68
2023/09/02 01:34:28;;;;;;;51.40;7.22;;;;;;;;;;6281872;28;20303;-68
2023/09/02 01:37:33;;;;;;;16.08;6.75;;;;;;;;;;6282370;28;20334;-68
2023/09/02 01:40:38;;;;;;;7.40;6.63;;;;;;;;;;6281751;28;20311;-71
2023/09/02 01:43:45;;;;;;;13.50;6.80;;;;;;;;;;6283097;28;20508;-69
2023/09/02 01:46:49;;;;;;;12.32;7.13;;;;;;;;;;6283538;28;20295;-69
2023/09/02 01:49:54;;;;;;;7.32;6.72;;;;;;;;;;6282684;28;20478;-68
2023/09/02 01:52:58;;;;;;;8.95;6.95;;;;;;;;;;6281884;28;20294;-67
2023/09/02 01:56:03;;;;;;;13.20;7.60;;;;;;;;;;6282222;28;20304;-70
2023/09/02 01:59:09;;;;;;;8.90;6.65;;;;;;;;;;6281173;28;20338;-67
2023/09/02 02:02:16;;;;;;;8.10;6.15;;;;;;;;;;6282207;28;20283;-69
2023/09/02 02:05:23;;;;;;;7.72;7.03;;;;;;;;;;6282294;28;20303;-70
2023/09/02 02:08:30;;;;;;;8.75;6.68;;;;;;;;;;6279490;28;20334;-68
2023/09/02 02:11:37;;;;;;;6.72;5.95;;;;;;;;;;6281940;28;20290;-68
2023/09/02 02:14:42;;;;;;;13.18;6.78;;;;;;;;;;6281034;28;20472;-67
2023/09/02 02:17:46;;;;;;;7.45;5.63;;;;;;;;;;6281701;28;20298;-69
2023/09/02 02:20:54;;;;;;;5.95;5.35;;;;;;;;;;6280625;28;20350;-69
2023/09/02 02:23:58;;;;;;;5.45;5.05;;;;;;;;;;6281036;28;20307;-68
2023/09/02 02:27:02;;;;;;;12.20;5.30;;;;;;;;;;6282456;28;20334;-69
2023/09/02 02:30:09;;;;;;;20.42;5.93;;;;;;;;;;6281100;28;20303;-70
2023/09/02 02:33:13;;;;;;;34.75;5.30;;;;;;;;;;6280053;28;20306;-69
2023/09/02 02:36:16;;;;;;;16.20;5.13;;;;;;;;;;6282194;28;20426;-70
2023/09/02 02:39:20;;;;;;;6.53;5.40;;;;;;;;;;6281257;28;20303;-70
2023/09/02 02:42:24;;;;;;;33.83;5.50;;;;;;;;;;6282390;28;20330;-68
2023/09/02 02:45:29;;;;;;;25.10;5.03;;;;;;;;;;6281773;28;20299;-69
2023/09/02 02:48:34;;;;;;;9.10;5.00;;;;;;;;;;6281623;28;20300;-70
2023/09/02 02:51:37;;;;;;;10.80;4.70;;;;;;;;;;6282264;28;20294;-69
2023/09/02 02:54:41;;;;;;;6.82;5.07;;;;;;;;;;6280476;28;20314;-68
2023/09/02 02:57:45;;;;;;;16.52;5.20;;;;;;;;;;6280508;28;20306;-70
2023/09/02 03:00:51;;;;;;;5.43;4.95;;;;;;;;;;6279134;28;20306;-70
2023/09/02 03:03:55;;;;;;;4.65;4.35;;;;;;;;;;6276398;28;20306;-67
2023/09/02 03:06:59;;;;;;;5.25;4.82;;;;;;;;;;6265145;28;20568;-68
2023/09/02 03:10:04;;;;;;;5.18;4.18;;;;;;;;;;6277315;28;20374;-68
2023/09/02 03:13:08;;;;;;;4.30;4.10;;;;;;;;;;6279870;28;20314;-68
2023/09/02 03:16:14;;;;;;;4.75;4.45;;;;;;;;;;6280887;28;20464;-67
2023/09/02 03:19:19;;;;;;;4.78;4.38;;;;;;;;;;6280469;28;20306;-67
2023/09/02 03:22:22;;;;;;;4.95;4.47;;;;;;;;;;6262000;28;20315;-69
2023/09/02 03:25:30;;;;;;;3.72;3.53;;;;;;;;;;6261314;28;20295;-70
2023/09/02 03:28:34;;;;;;;3.60;3.30;;;;;;;;;;6265882;28;20247;-69
2023/09/02 03:31:39;;;;;;;3.25;3.10;;;;;;;;;;6278681;28;20304;-67
2023/09/02 03:34:45;;;;;;;2.60;2.50;;;;;;;;;;6278079;28;20306;-69
2023/09/02 03:37:49;;;;;;;2.47;2.38;;;;;;;;;;6262470;28;20545;-69
2023/09/02 03:40:53;;;;;;;2.70;2.50;;;;;;;;;;6280602;28;20307;-69
2023/09/02 03:43:57;;;;;;;2.53;2.53;;;;;;;;;;6281587;28;20322;-68
2023/09/02 03:47:03;;;;;;;3.53;2.90;;;;;;;;;;6280877;28;20479;-68
2023/09/02 03:50:08;;;;;;;2.65;2.55;;;;;;;;;;6281877;28;20314;-69
2023/09/02 03:53:12;;;;;;;2.65;2.55;;;;;;;;;;6284773;28;20560;-68
2023/09/02 03:56:16;;;;;;;3.58;2.80;;;;;;;;;;6286057;28;20346;-69
2023/09/02 03:59:20;;;;;;;3.03;2.83;;;;;;;;;;6284526;28;20468;-69
2023/09/02 04:02:25;;;;;;;3.00;2.90;;;;;;;;;;6284381;28;20752;-70
2023/09/02 04:05:29;;;;;;;2.88;2.83;;;;;;;;;;6286150;28;20302;-67
2023/09/02 04:08:34;;;;;;;2.72;2.53;;;;;;;;;;6282475;28;20299;-70
2023/09/02 04:11:39;;;;;;;2.13;2.10;;;;;;;;;;6284433;28;20295;-68
2023/09/02 04:14:43;;;;;;;2.15;2.00;;;;;;;;;;6284231;28;20608;-69
2023/09/02 04:17:48;;;;;;;2.25;2.15;;;;;;;;;;6285243;28;20295;-69
2023/09/02 04:20:52;;;;;;;2.22;2.20;;;;;;;;;;6285590;28;20555;-69
2023/09/02 04:23:56;;;;;;;2.20;2.20;;;;;;;;;;6317175;28;20493;-69
2023/09/02 04:27:01;;;;;;;2.20;2.20;;;;;;;;;;6284958;28;20702;-69
2023/09/02 04:30:06;;;;;;;1.92;1.92;;;;;;;;;;6284772;28;20234;-68
2023/09/02 04:33:12;;;;;;;1.98;1.98;;;;;;;;;;6283667;28;20306;-68
2023/09/02 04:36:16;;;;;;;2.00;2.00;;;;;;;;;;6285046;28;20717;-69
2023/09/02 04:39:20;;;;;;;2.00;1.90;;;;;;;;;;6284307;28;20303;-71
2023/09/02 04:42:24;;;;;;;1.75;1.75;;;;;;;;;;6283106;28;20319;-71
2023/09/02 04:45:29;;;;;;;1.88;1.88;;;;;;;;;;6285242;28;20303;-71
2023/09/02 04:48:34;;;;;;;1.92;1.92;;;;;;;;;;6283221;28;20243;-69
2023/09/02 04:51:40;;;;;;;1.48;1.40;;;;;;;;;;6283879;28;20295;-68
2023/09/02 04:54:45;;;;;;;1.38;1.27;;;;;;;;;;6283194;28;20298;-71
2023/09/02 04:57:49;;;;;;;1.30;1.30;;;;;;;;;;6283022;28;20303;-68
2023/09/02 05:00:53;;;;;;;1.10;1.10;;;;;;;;;;6283248;28;20291;-67
2023/09/02 05:04:00;;;;;;;1.23;1.20;;;;;;;;;;6282746;28;20295;-69
2023/09/02 05:07:05;;;;;;;1.30;1.30;;;;;;;;;;6282213;28;20485;-78
2023/09/02 05:10:09;;;;;;;1.20;1.20;;;;;;;;;;6282818;28;20294;-68
2023/09/02 05:13:13;;;;;;;1.75;1.20;;;;;;;;;;6250590;28;20308;-68
2023/09/02 05:16:17;;;;;;;1.38;1.38;;;;;;;;;;6252513;28;20295;-68
2023/09/02 05:19:22;;;;;;;1.08;1.08;;;;;;;;;;6241277;28;20551;-68
2023/09/02 05:22:26;;;;;;;1.10;1.10;;;;;;;;;;6253308;28;20838;-68
2023/09/02 05:25:30;;;;;;;1.15;1.15;;;;;;;;;;6253851;28;20498;-67
2023/09/02 05:28:34;;;;;;;1.30;1.30;;;;;;;;;;6247478;28;20304;-68
2023/09/02 05:31:39;;;;;;;2.83;1.25;;;;;;;;;;6255352;28;20299;-71
2023/09/02 05:34:44;;;;;;;1.33;1.33;;;;;;;;;;6239055;28;20311;-69
2023/09/02 05:37:48;;;;;;;1.17;1.17;;;;;;;;;;6252018;28;20291;-69
2023/09/02 05:40:52;;;;;;;1.20;1.10;;;;;;;;;;6258148;28;20295;-68
2023/09/02 05:43:56;;;;;;;1.20;1.20;;;;;;;;;;6244508;28;20304;-68
2023/09/02 05:47:00;;;;;;;1.10;1.10;;;;;;;;;;6259083;28;20304;-68
2023/09/02 05:50:06;;;;;;;1.20;1.20;;;;;;;;;;6235297;28;20311;-69
2023/09/02 05:53:10;;;;;;;1.05;1.05;;;;;;;;;;6252155;28;20304;-69
2023/09/02 05:56:14;;;;;;;0.90;0.90;;;;;;;;;;6258794;28;20324;-70
2023/09/02 05:59:18;;;;;;;1.23;1.23;;;;;;;;;;6244022;28;20407;-69
2023/09/02 06:02:22;;;;;;;1.45;1.45;;;;;;;;;;6257201;28;20443;-67
2023/09/02 06:05:27;;;;;;;1.20;1.20;;;;;;;;;;6236950;28;20275;-68
2023/09/02 06:08:31;;;;;;;1.08;1.08;;;;;;;;;;6250002;28;20307;-68
2023/09/02 06:11:35;;;;;;;0.90;0.90;;;;;;;;;;6276491;28;20299;-68
2023/09/02 06:14:38;;;;;;;1.20;1.20;;;;;;;;;;6281255;28;20298;-67
2023/09/02 06:17:42;;;;;;;1.10;1.10;;;;;;;;;;6277581;28;20473;-68
2023/09/02 06:20:47;;;;;;;1.15;1.15;;;;;;;;;;6240956;28;20303;-68
2023/09/02 06:23:51;;;;;;;1.00;1.00;;;;;;;;;;6251894;28;20657;-68
2023/09/02 06:26:55;;;;;;;1.20;1.20;;;;;;;;;;6290488;28;20302;-68
2023/09/02 06:29:59;;;;;;;1.10;1.10;;;;;;;;;;6243671;28;20327;-70
2023/09/02 06:33:03;;;;;;;1.23;1.23;;;;;;;;;;6251554;28;20304;-69
2023/09/02 06:36:12;;;;;;;1.30;1.30;;;;;;;;;;6242104;28;20300;-68
2023/09/02 06:39:16;;;;;;;1.17;1.17;;;;;;;;;;6251376;28;20292;-69
2023/09/02 06:42:19;;;;;;;1.20;1.20;;;;;;;;;;6257060;28;20311;-70
2023/09/02 06:45:23;;;;;;;1.33;1.30;;;;;;;;;;6244176;28;20315;-70
2023/09/02 06:48:27;;;;;;;1.35;1.35;;;;;;;;;;6256596;28;20576;-70
2023/09/02 06:51:33;;;;;;;1.40;1.20;;;;;;;;;;6289840;28;20311;-69
2023/09/02 06:54:37;;;;;;;1.10;1.10;;;;;;;;;;6257280;28;20489;-69
2023/09/02 06:57:42;;;;;;;5.05;1.50;;;;;;;;;;6257147;28;20303;-69
2023/09/02 07:00:48;;;;;;;1.00;1.00;;;;;;;;;;6257296;28;20303;-70
2023/09/02 07:03:55;;;;;;;1.00;1.00;;;;;;;;;;6256766;28;20320;-69
2023/09/02 07:07:01;;;;;;;1.55;1.45;;;;;;;;;;6257522;28;20295;-69
2023/09/02 07:10:05;;;;;;;1.20;1.20;;;;;;;;;;6261980;28;20311;-69
2023/09/02 07:13:10;;;;;;;1.33;1.02;;;;;;;;;;6281735;28;20318;-70
2023/09/02 07:16:15;;;;;;;1.38;1.00;;;;;;;;;;6282041;28;20591;-68
2023/09/02 07:19:19;;;;;;;1.10;1.10;;;;;;;;;;6281774;28;20295;-69
2023/09/02 07:22:24;;;;;;;1.08;1.08;;;;;;;;;;6281086;28;20302;-68
2023/09/02 07:25:28;;;;;;;1.15;1.05;;;;;;;;;;6285520;28;20323;-68
2023/09/02 07:28:33;;;;;;;2.72;1.00;;;;;;;;;;6286329;28;20302;-68
2023/09/02 07:31:37;;;;;;;0.93;0.93;;;;;;;;;;6287124;28;20320;-69
2023/09/02 07:34:41;;;;;;;1.00;1.00;;;;;;;;;;6285399;28;20310;-67
2023/09/02 07:37:46;;;;;;;3.03;1.00;;;;;;;;;;6287381;28;20407;-68
2023/09/02 07:40:50;;;;;;;1.00;1.00;;;;;;;;;;6286745;28;20311;-70
2023/09/02 07:43:54;;;;;;;1.65;1.15;;;;;;;;;;6286322;28;20487;-70
2023/09/02 07:46:58;;;;;;;1.27;1.20;;;;;;;;;;6286196;28;20330;-69
2023/09/02 07:50:02;;;;;;;1.10;1.10;;;;;;;;;;6285550;28;20310;-70
2023/09/02 07:53:07;;;;;;;0.90;0.90;;;;;;;;;;6284749;28;20294;-73
2023/09/02 07:56:11;;;;;;;0.90;0.90;;;;;;;;;;6286023;28;20418;-72
2023/09/02 07:59:14;;;;;;;1.08;1.08;;;;;;;;;;6285412;28;20468;-71
2023/09/02 08:02:18;;;;;;;1.05;1.05;;;;;;;;;;6285554;28;20259;-68
2023/09/02 08:05:22;;;;;;;1.15;0.98;;;;;;;;;;6285166;28;20287;-72
2023/09/02 08:08:27;;;;;;;0.88;0.88;;;;;;;;;;6283650;28;20318;-72
2023/09/02 08:11:31;;;;;;;1.00;1.00;;;;;;;;;;6285245;28;20239;-73
2023/09/02 08:14:35;;;;;;;1.00;1.00;;;;;;;;;;6284919;28;20303;-72
2023/09/02 08:17:40;;;;;;;3.83;1.30;;;;;;;;;;6285045;28;20290;-71
2023/09/02 08:20:47;;;;;;;0.90;0.90;;;;;;;;;;6285408;28;20505;-69
2023/09/02 08:23:52;;;;;;;1.02;1.02;;;;;;;;;;6284597;28;20298;-70
2023/09/02 08:26:56;;;;;;;1.00;1.00;;;;;;;;;;6285480;28;20302;-70
2023/09/02 08:30:00;;;;;;;1.10;1.00;;;;;;;;;;6284695;28;20294;-68
2023/09/02 08:33:04;;;;;;;0.90;0.90;;;;;;;;;;6284269;28;20291;-67
2023/09/02 08:36:14;;;;;;;0.93;0.93;;;;;;;;;;6283869;28;20334;-69
2023/09/02 08:39:20;;;;;;;0.85;0.85;;;;;;;;;;6284451;28;20291;-70
2023/09/02 08:42:23;;;;;;;0.80;0.80;;;;;;;;;;6284454;28;20310;-69
2023/09/02 08:45:29;;;;;;;0.93;0.88;;;;;;;;;;6284791;28;20335;-69
2023/09/02 08:48:35;;;;;;;2.17;1.02;;;;;;;;;;6283960;28;20607;-69
2023/09/02 08:51:39;;;;;;;0.73;0.73;;;;;;;;;;6284680;28;20307;-68
2023/09/02 08:54:44;;;;;;;1.45;0.70;;;;;;;;;;6284149;28;20627;-70
2023/09/02 08:57:48;;;;;;;1.17;0.80;;;;;;;;;;6284110;28;20298;-70
2023/09/02 09:00:52;;;;;;;0.88;0.70;;;;;;;;;;6284505;28;20303;-69
2023/09/02 09:03:57;;;;;;;1.02;1.02;;;;;;;;;;6284334;28;20303;-69
2023/09/02 09:07:04;;;;;;;0.70;0.70;;;;;;;;;;6284039;28;20491;-76
2023/09/02 09:10:11;;;;;;;2.47;1.30;;;;;;;;;;6282981;28;20291;-68
2023/09/02 09:13:16;;;;;;;1.35;1.27;;;;;;;;;;6283168;28;20298;-69
2023/09/02 09:16:23;;;;;;;1.20;1.20;;;;;;;;;;6283608;28;20465;-69
2023/09/02 09:19:27;;;;;;;1.40;1.30;;;;;;;;;;6283214;28;20291;-68
2023/09/02 09:22:38;;;;;;;1.73;1.60;;;;;;;;;;6281984;28;20442;-71
2023/09/02 09:25:44;;;;;;;0.98;0.98;;;;;;;;;;6283606;28;20307;-69
2023/09/02 09:28:52;;;;;;;1.10;1.10;;;;;;;;;;6283054;28;20486;-70
2023/09/02 09:32:08;;;;;;;2.00;0.88;;;;;;;;;;6283566;28;20296;-71
2023/09/02 09:35:22;;;;;;;0.90;0.90;;;;;;;;;;6280417;28;20303;-68
2023/09/02 09:38:37;;;;;;;0.80;0.80;;;;;;;;;;6278889;28;20325;-69
2023/09/02 09:41:47;;;;;;;0.70;0.70;;;;;;;;;;6305762;28;20303;-69
2023/09/02 09:44:53;;;;;;;0.93;0.93;;;;;;;;;;6282824;28;20302;-69
2023/09/02 09:47:59;;;;;;;1.00;1.00;;;;;;;;;;6281742;28;20322;-70
2023/09/02 09:51:07;;;;;;;0.80;0.80;;;;;;;;;;6282991;28;20302;-70
2023/09/02 09:54:11;;;;;;;0.93;0.90;;;;;;;;;;6282510;28;20303;-69
2023/09/02 09:57:19;;;;;;;1.00;1.00;;;;;;;;;;6282677;28;20302;-69
2023/09/02 10:00:23;;;;;;;2.10;1.10;;;;;;;;;;6281745;28;20303;-70
2023/09/02 10:03:30;;;;;;;1.50;1.50;;;;;;;;;;6282485;28;20322;-69
2023/09/02 10:06:37;;;;;;;2.00;2.00;;;;;;;;;;6282980;28;20307;-70
2023/09/02 10:09:42;;;;;;;1.10;1.10;;;;;;;;;;6280327;28;20291;-70
2023/09/02 10:12:53;;;;;;;0.95;0.95;;;;;;;;;;6253517;28;20300;-70
2023/09/02 10:15:57;;;;;;;1.05;1.05;;;;;;;;;;6248873;28;20291;-68
2023/09/02 10:19:04;;;;;;;1.42;1.08;;;;;;;;;;6243298;28;20304;-71
2023/09/02 10:22:08;;;;;;;2.05;2.00;;;;;;;;;;6250275;28;20307;-70
2023/09/02 10:25:16;;;;;;;2.10;2.00;;;;;;;;;;6250011;28;20291;-70
2023/09/02 10:28:22;;;;;;;3.10;2.90;;;;;;;;;;6249345;28;20304;-71
2023/09/02 10:31:33;;;;;;;1.65;1.65;;;;;;;;;;6252629;28;20299;-69
2023/09/02 10:34:40;;;;;;;0.98;0.98;;;;;;;;;;6238181;28;20316;-70
2023/09/02 10:37:49;;;;;;;1.38;1.27;;;;;;;;;;6250894;28;20288;-70
2023/09/02 10:40:57;;;;;;;0.90;0.90;;;;;;;;;;6256226;28;20303;-71
2023/09/02 10:44:05;;;;;;;1.70;1.10;;;;;;;;;;6241594;28;20588;-69
2023/09/02 10:47:09;;;;;;;0.90;0.90;;;;;;;;;;6259573;28;20528;-69
2023/09/02 10:50:13;;;;;;;0.98;0.98;;;;;;;;;;6234908;28;20308;-70
2023/09/02 10:53:17;;;;;;;1.38;1.38;;;;;;;;;;6251071;28;20304;-69
2023/09/02 10:56:25;;;;;;;1.52;1.45;;;;;;;;;;6255835;28;20279;-70
2023/09/02 10:59:31;;;;;;;1.67;1.58;;;;;;;;;;6242254;28;20407;-71
2023/09/02 11:02:41;;;;;;;2.50;2.40;;;;;;;;;;6255000;28;20292;-69
2023/09/02 11:06:06;;;;;;;4.78;4.57;;;;;;;;;;6238954;28;20564;-70
2023/09/02 11:09:49;;;;;;;3.55;3.40;;;;;;;;;;6249455;28;20396;-69
2023/09/02 11:13:06;;;;;;;2.42;2.33;;;;;;;;;;6271244;28;20372;-70
2023/09/02 11:16:15;;;;;;;2.03;1.80;;;;;;;;;;6264861;28;20315;-69
2023/09/02 11:19:19;;;;;;;2.13;1.90;;;;;;;;;;6259124;28;20295;-69
2023/09/02 11:22:47;;;;;;;1.77;1.77;;;;;;;;;;6275350;28;20308;-69
2023/09/02 11:26:01;;;;;;;1.33;1.33;;;;;;;;;;6280402;28;20637;-68
2023/09/02 11:29:23;;;;;;;1.25;1.23;;;;;;;;;;6266826;28;20307;-69
2023/09/02 11:32:28;;;;;;;1.50;1.50;;;;;;;;;;6279027;28;20496;-69
2023/09/02 11:35:34;;;;;;;1.55;1.55;;;;;;;;;;6277579;28;20299;-71
2023/09/02 11:38:38;;;;;;;1.52;1.52;;;;;;;;;;6262932;28;20303;-68
2023/09/02 11:41:41;;;;;;;3.00;2.80;;;;;;;;;;6262804;28;20550;-69
2023/09/02 11:45:01;;;;;;;1.30;1.30;;;;;;;;;;6267047;28;20303;-68
2023/09/02 11:48:08;;;;;;;1.45;1.33;;;;;;;;;;6278836;28;20595;-69
2023/09/02 11:51:12;;;;;;;1.75;1.23;;;;;;;;;;6272555;28;20292;-69
2023/09/02 11:54:16;;;;;;;0.80;0.80;;;;;;;;;;6262712;28;20307;-69
2023/09/02 11:57:21;;;;;;;1.00;1.00;;;;;;;;;;6267465;28;20314;-69
2023/09/02 12:00:26;;;;;;;0.98;0.98;;;;;;;;;;6269306;28;20296;-68
2023/09/02 12:03:31;;;;;;;1.20;1.20;;;;;;;;;;6258414;28;20300;-70
2023/09/02 12:06:35;;;;;;;1.10;1.10;;;;;;;;;;6269123;28;20337;-68
2023/09/02 12:09:39;;;;;;;1.05;1.05;;;;;;;;;;6273262;28;20301;-68
2023/09/02 12:12:46;;;;;;;1.02;1.02;;;;;;;;;;6272403;28;20307;-69
2023/09/02 12:15:51;;;;;;;1.80;1.60;;;;;;;;;;6271177;28;20300;-68
2023/09/02 12:18:57;;;;;;;3.85;1.10;;;;;;;;;;6263382;28;20383;-67
2023/09/02 12:22:01;;;;;;;1.38;1.38;;;;;;;;;;6277560;28;20314;-69
2023/09/02 12:25:13;;;;;;;1.33;1.33;;;;;;;;;;6278261;28;20303;-69
2023/09/02 12:28:17;;;;;;;1.25;1.25;;;;;;;;;;6273452;28;20303;-70
2023/09/02 12:31:22;;;;;;;4.45;1.55;;;;;;;;;;6266551;28;20299;-70
2023/09/02 12:34:33;;;;;;;1.63;1.50;;;;;;;;;;6262359;28;20311;-69
2023/09/02 12:37:37;;;;;;;1.80;1.80;;;;;;;;;;6279177;28;20291;-69
2023/09/02 12:40:52;;;;;;;1.50;1.50;;;;;;;;;;6282317;28;20303;-69
2023/09/02 12:43:56;;;;;;;2.25;1.50;;;;;;;;;;6274070;28;20308;-69
2023/09/02 12:47:00;;;;;;;1.35;1.35;;;;;;;;;;6260736;28;20299;-72
2023/09/02 12:50:06;;;;;;;1.48;1.38;;;;;;;;;;6281578;28;20628;-69
2023/09/02 12:53:13;;;;;;;1.88;1.30;;;;;;;;;;6264216;28;20307;-70
2023/09/02 12:56:17;;;;;;;1.80;1.70;;;;;;;;;;6262254;28;20252;-70
2023/09/02 12:59:21;;;;;;;1.42;1.42;;;;;;;;;;6269754;28;20300;-69
2023/09/02 13:02:25;;;;;;;1.20;1.20;;;;;;;;;;6281577;28;20295;-71
2023/09/02 13:05:31;;;;;;;3.95;1.40;;;;;;;;;;6281439;28;20595;-69
2023/09/02 13:08:35;;;;;;;3.00;1.40;;;;;;;;;;6263588;28;20300;-69
2023/09/02 13:11:39;;;;;;;1.60;1.30;;;;;;;;;;6264526;28;20303;-68
2023/09/02 13:14:43;;;;;;;1.08;1.08;;;;;;;;;;6269916;28;20318;-68
2023/09/02 13:17:47;;;;;;;1.40;1.25;;;;;;;;;;6282664;28;20299;-70
2023/09/02 13:20:53;;;;;;;1.50;1.40;;;;;;;;;;6277718;28;20363;-69
2023/09/02 13:23:57;;;;;;;1.50;1.50;;;;;;;;;;6263602;28;20296;-69
2023/09/02 13:27:01;;;;;;;1.95;1.50;;;;;;;;;;6267151;28;20299;-71
2023/09/02 13:30:07;;;;;;;1.65;1.40;;;;;;;;;;6268804;28;20298;-69
2023/09/02 13:33:11;;;;;;;1.50;1.50;;;;;;;;;;6280768;28;20307;-69
2023/09/02 13:36:16;;;;;;;1.70;1.70;;;;;;;;;;6273810;28;20450;-69
2023/09/02 13:39:20;;;;;;;1.60;1.60;;;;;;;;;;6263861;28;20469;-69
2023/09/02 13:42:24;;;;;;;1.70;1.60;;;;;;;;;;6268815;28;20608;-68
2023/09/02 13:45:30;;;;;;;1.73;1.73;;;;;;;;;;6271346;28;20306;-69
2023/09/02 13:48:36;;;;;;;1.70;1.60;;;;;;;;;;6282321;28;20295;-68
2023/09/02 13:51:42;;;;;;;1.65;1.65;;;;;;;;;;6270837;28;20299;-69
2023/09/02 13:54:45;;;;;;;1.63;1.63;;;;;;;;;;6263842;28;20503;-71
2023/09/02 13:57:49;;;;;;;2.58;1.70;;;;;;;;;;6269456;28;20331;-68
2023/09/02 14:00:53;;;;;;;1.40;1.40;;;;;;;;;;6273867;28;20299;-68
2023/09/02 14:03:57;;;;;;;3.13;1.80;;;;;;;;;;6279891;28;20283;-68
2023/09/02 14:07:03;;;;;;;1.55;1.50;;;;;;;;;;6267118;28;20304;-74
2023/09/02 14:10:08;;;;;;;1.45;1.45;;;;;;;;;;6263361;28;20299;-68
2023/09/02 14:13:14;;;;;;;1.33;1.33;;;;;;;;;;6268257;28;20308;-71
2023/09/02 14:16:18;;;;;;;2.60;1.63;;;;;;;;;;6276797;28;20299;-68
2023/09/02 14:19:21;;;;;;;1.63;1.60;;;;;;;;;;6280888;28;20306;-69
2023/09/02 14:22:27;;;;;;;3.60;1.90;;;;;;;;;;6263744;28;20307;-68
2023/09/02 14:25:31;;;;;;;1.98;1.83;;;;;;;;;;6262329;28;20315;-69
2023/09/02 14:28:35;;;;;;;2.45;2.28;;;;;;;;;;6268384;28;20299;-68
2023/09/02 14:31:39;;;;;;;1.90;1.80;;;;;;;;;;6279656;28;20289;-68
2023/09/02 14:34:46;;;;;;;1.33;1.30;;;;;;;;;;6279055;28;20479;-71
2023/09/02 14:37:51;;;;;;;1.33;1.33;;;;;;;;;;6263318;28;20298;-69
2023/09/02 14:40:55;;;;;;;2.40;1.52;;;;;;;;;;6258458;28;20322;-70
2023/09/02 14:43:59;;;;;;;1.67;1.40;;;;;;;;;;6268582;28;20300;-69
2023/09/02 14:47:04;;;;;;;1.50;1.50;;;;;;;;;;6282784;28;20303;-68
2023/09/02 14:50:08;;;;;;;1.52;1.52;;;;;;;;;;6259344;28;20299;-71
2023/09/02 14:53:14;;;;;;;11.05;1.90;;;;;;;;;;6276320;28;20304;-69
2023/09/02 14:56:17;;;;;;;1.40;1.40;;;;;;;;;;6280297;28;20267;-68
2023/09/02 14:59:22;;;;;;;1.23;1.23;;;;;;;;;;6271363;28;20337;-70
2023/09/02 15:02:37;;;;;;;2.28;1.83;;;;;;;;;;6259345;28;20294;-67
2023/09/02 15:05:41;;;;;;;1.30;1.30;;;;;;;;;;6262556;28;20310;-71
2023/09/02 15:08:46;;;;;;;1.50;1.50;;;;;;;;;;6273707;28;20330;-68
2023/09/02 15:11:50;;;;;;;3.95;3.85;;;;;;;;;;6275247;28;20465;-71
2023/09/02 15:14:54;;;;;;;2.42;2.42;;;;;;;;;;6270990;28;20588;-71
2023/09/02 15:17:58;;;;;;;4.30;4.00;;;;;;;;;;6259213;28;20319;-69
2023/09/02 15:21:03;;;;;;;1.75;1.75;;;;;;;;;;6265396;28;20310;-70
2023/09/02 15:24:09;;;;;;;13.95;10.13;;;;;;;;;;6275037;28;20306;-68
2023/09/02 15:27:17;;;;;;;32.35;21.95;;;;;;;;;;6272019;28;20331;-69
2023/09/02 15:30:21;;;;;;;17.30;13.65;;;;;;;;;;6271485;28;20327;-70
2023/09/02 15:33:27;;;;;;;15.48;10.48;;;;;;;;;;6258986;28;20319;-69
2023/09/02 15:36:31;;;;;;;3.10;3.00;;;;;;;;;;6268980;28;20299;-68
2023/09/02 15:39:36;;;;;;;2.28;2.17;;;;;;;;;;6274338;28;20318;-68
2023/09/02 15:42:41;;;;;;;1.70;1.70;;;;;;;;;;6269423;28;20417;-69
2023/09/02 15:45:44;;;;;;;7.07;6.57;;;;;;;;;;6269829;28;20327;-68
2023/09/02 15:48:48;;;;;;;3.40;3.20;;;;;;;;;;6263612;28;20307;-69
2023/09/02 15:51:52;;;;;;;2.20;2.20;;;;;;;;;;6274956;28;20357;-68
2023/09/02 15:54:57;;;;;;;1.83;1.80;;;;;;;;;;6278651;28;20322;-67
2023/09/02 15:58:01;;;;;;;2.20;2.08;;;;;;;;;;6275041;28;20290;-68
2023/09/02 16:01:05;;;;;;;1.60;1.60;;;;;;;;;;6268144;28;20291;-69
2023/09/02 16:04:08;;;;;;;1.50;1.50;;;;;;;;;;6263138;28;20303;-69
2023/09/02 16:07:12;;;;;;;1.65;1.63;;;;;;;;;;6277790;28;20482;-69
2023/09/02 16:10:18;;;;;;;1.50;1.50;;;;;;;;;;6279477;28;20295;-72
2023/09/02 16:13:22;;;;;;;2.42;1.60;;;;;;;;;;6274506;28;20303;-69
2023/09/02 16:16:26;;;;;;;2.13;2.03;;;;;;;;;;6266207;28;20475;-69
2023/09/02 16:19:30;;;;;;;5.07;2.13;;;;;;;;;;6262618;28;20332;-68
2023/09/02 16:22:34;;;;;;;2.75;2.53;;;;;;;;;;6278827;28;20286;-68
2023/09/02 16:25:39;;;;;;;2.42;1.90;;;;;;;;;;6281873;28;20294;-70
2023/09/02 16:28:43;;;;;;;1.88;1.70;;;;;;;;;;6273959;28;20306;-68
2023/09/02 16:31:47;;;;;;;1.73;1.73;;;;;;;;;;6263036;28;20291;-69
2023/09/02 16:34:52;;;;;;;1.67;1.67;;;;;;;;;;6261908;28;20303;-69
2023/09/02 16:37:56;;;;;;;1.60;1.60;;;;;;;;;;6278960;28;20499;-68
2023/09/02 16:41:04;;;;;;;1.90;1.80;;;;;;;;;;6284499;28;20362;-70
2023/09/02 16:44:08;;;;;;;2.03;1.63;;;;;;;;;;6268508;28;20312;-68
2023/09/02 16:47:14;;;;;;;1.60;1.60;;;;;;;;;;6285648;28;20247;-67
2023/09/02 16:50:19;;;;;;;1.05;1.05;;;;;;;;;;6283608;28;20306;-67
2023/09/02 16:53:23;;;;;;;1.77;1.77;;;;;;;;;;6278613;28;20303;-69
2023/09/02 16:56:28;;;;;;;2.60;2.50;;;;;;;;;;6283957;28;20571;-71
2023/09/02 16:59:32;;;;;;;1.75;1.75;;;;;;;;;;6270119;28;20425;-67
2023/09/02 17:02:40;;;;;;;1.58;1.58;;;;;;;;;;6281549;28;20294;-69
2023/09/02 17:05:45;;;;;;;1.38;1.38;;;;;;;;;;6265077;28;20303;-68
2023/09/02 17:08:49;;;;;;;1.40;1.30;;;;;;;;;;6276041;28;20283;-69
2023/09/02 17:11:54;;;;;;;1.40;1.40;;;;;;;;;;6274012;28;20295;-68
2023/09/02 17:14:58;;;;;;;2.75;2.70;;;;;;;;;;6273318;28;20600;-69
2023/09/02 17:18:02;;;;;;;3.65;3.13;;;;;;;;;;6261408;28;20248;-70
2023/09/02 17:21:11;;;;;;;2.40;2.30;;;;;;;;;;6268555;28;20326;-71
2023/09/02 17:24:17;;;;;;;1.98;1.90;;;;;;;;;;6277622;28;20295;-68
2023/09/02 17:27:22;;;;;;;1.73;1.60;;;;;;;;;;6273224;28;20295;-69
2023/09/02 17:30:26;;;;;;;1.60;1.60;;;;;;;;;;6271913;28;20300;-69
2023/09/02 17:33:30;;;;;;;1.60;1.60;;;;;;;;;;6261478;28;20316;-68
2023/09/02 17:36:35;;;;;;;1.40;1.30;;;;;;;;;;6271543;28;20310;-70
2023/09/02 17:39:39;;;;;;;1.38;1.30;;;;;;;;;;6277346;28;20302;-68
2023/09/02 17:42:44;;;;;;;1.40;1.40;;;;;;;;;;6272445;28;20302;-71
2023/09/02 17:45:48;;;;;;;1.45;1.15;;;;;;;;;;6268947;28;20307;-67
2023/09/02 17:48:52;;;;;;;1.50;1.50;;;;;;;;;;6260459;28;20299;-67
2023/09/02 17:51:56;;;;;;;1.50;1.42;;;;;;;;;;6274076;28;20302;-69
2023/09/02 17:55:00;;;;;;;1.30;1.30;;;;;;;;;;6277564;28;20290;-67
2023/09/02 17:58:06;;;;;;;1.63;1.63;;;;;;;;;;6270258;28;20342;-67
2023/09/02 18:01:09;;;;;;;1.38;1.38;;;;;;;;;;6258416;28;20319;-68
2023/09/02 18:04:13;;;;;;;2.22;1.30;;;;;;;;;;6242480;28;20592;-69
2023/09/02 18:07:17;;;;;;;1.27;1.27;;;;;;;;;;6250378;28;20307;-68
2023/09/02 18:10:21;;;;;;;1.30;1.30;;;;;;;;;;6259497;28;20295;-68
2023/09/02 18:13:26;;;;;;;1.40;1.40;;;;;;;;;;6281979;28;20791;-70
2023/09/02 18:16:30;;;;;;;1.40;1.40;;;;;;;;;;6282878;28;20583;-68
2023/09/02 18:19:34;;;;;;;3.75;2.83;;;;;;;;;;6282618;28;20299;-68
2023/09/02 18:22:37;;;;;;;3.80;3.60;;;;;;;;;;6282261;28;20318;-68
2023/09/02 18:25:41;;;;;;;17.45;12.43;;;;;;;;;;6282809;28;20298;-67
2023/09/02 18:28:46;;;;;;;15.65;12.13;;;;;;;;;;6282040;28;20294;-68